sensor_id;sensor_type;location;lat;lon;timestamp;pressure;altitude;pressure_sealevel;temperature;humidity
10658;BME280;5377;43.276;26.930;2023-03-14T00:01:54;99456.59;;;2.22;85.66
10658;BME280;5377;43.276;26.930;2023-03-14T00:04:21;99452.28;;;2.21;86.02
10658;BME280;5377;43.276;26.930;2023-03-14T00:06:48;99446.16;;;2.21;85.34
10658;BME280;5377;43.276;26.930;2023-03-14T00:09:15;99442.25;;;2.25;86.02
10658;BME280;5377;43.276;26.930;2023-03-14T00:11:43;99447.16;;;2.19;86.55
10658;BME280;5377;43.276;26.930;2023-03-14T00:14:11;99441.31;;;2.16;86.78
10658;BME280;5377;43.276;26.930;2023-03-14T00:16:38;99454.25;;;2.09;87.20
10658;BME280;5377;43.276;26.930;2023-03-14T00:19:05;99455.63;;;2.04;87.11
10658;BME280;5377;43.276;26.930;2023-03-14T00:21:32;99457.56;;;2.02;88.16
10658;BME280;5377;43.276;26.930;2023-03-14T00:23:58;99453.13;;;1.93;88.28
10658;BME280;5377;43.276;26.930;2023-03-14T00:26:25;99443.97;;;1.97;89.46
10658;BME280;5377;43.276;26.930;2023-03-14T00:28:53;99444.66;;;1.99;89.13
10658;BME280;5377;43.276;26.930;2023-03-14T00:31:20;99441.44;;;2.05;89.81
10658;BME280;5377;43.276;26.930;2023-03-14T00:33:47;99440.47;;;2.06;89.75
10658;BME280;5377;43.276;26.930;2023-03-14T00:36:15;99427.13;;;1.98;89.82
10658;BME280;5377;43.276;26.930;2023-03-14T00:38:44;99439.78;;;2.04;89.62
10658;BME280;5377;43.276;26.930;2023-03-14T00:41:12;99447.56;;;1.96;89.89
10658;BME280;5377;43.276;26.930;2023-03-14T00:43:39;99445.34;;;1.91;90.29
10658;BME280;5377;43.276;26.930;2023-03-14T00:46:08;99447.31;;;1.89;91.10
10658;BME280;5377;43.276;26.930;2023-03-14T00:48:35;99441.19;;;1.88;92.06
10658;BME280;5377;43.276;26.930;2023-03-14T00:51:02;99433.41;;;1.68;93.04
10658;BME280;5377;43.276;26.930;2023-03-14T00:53:29;99438.97;;;1.84;92.74
10658;BME280;5377;43.276;26.930;2023-03-14T00:55:56;99434.94;;;1.80;93.40
10658;BME280;5377;43.276;26.930;2023-03-14T00:58:23;99432.00;;;1.73;93.12
10658;BME280;5377;43.276;26.930;2023-03-14T01:00:50;99438.53;;;1.69;93.36
10658;BME280;5377;43.276;26.930;2023-03-14T01:03:18;99441.47;;;1.76;93.19
10658;BME280;5377;43.276;26.930;2023-03-14T01:05:45;99434.91;;;1.70;94.94
10658;BME280;5377;43.276;26.930;2023-03-14T01:08:11;99432.00;;;1.73;95.00
10658;BME280;5377;43.276;26.930;2023-03-14T01:10:39;99435.91;;;1.69;94.99
10658;BME280;5377;43.276;26.930;2023-03-14T01:13:07;99429.66;;;1.61;95.50
10658;BME280;5377;43.276;26.930;2023-03-14T01:15:34;99419.91;;;1.51;95.54
10658;BME280;5377;43.276;26.930;2023-03-14T01:18:01;99419.91;;;1.61;96.44
10658;BME280;5377;43.276;26.930;2023-03-14T01:20:29;99406.16;;;1.48;96.16
10658;BME280;5377;43.276;26.930;2023-03-14T01:22:56;99412.00;;;1.51;96.71
10658;BME280;5377;43.276;26.930;2023-03-14T01:25:22;99420.34;;;1.47;97.61
10658;BME280;5377;43.276;26.930;2023-03-14T01:27:49;99410.47;;;1.49;97.03
10658;BME280;5377;43.276;26.930;2023-03-14T01:30:16;99410.63;;;1.57;96.91
10658;BME280;5377;43.276;26.930;2023-03-14T01:32:43;99410.88;;;1.54;96.41
10658;BME280;5377;43.276;26.930;2023-03-14T01:35:09;99415.75;;;1.49;97.05
10658;BME280;5377;43.276;26.930;2023-03-14T01:37:38;99414.09;;;1.48;96.64
10658;BME280;5377;43.276;26.930;2023-03-14T01:40:05;99413.81;;;1.41;96.58
10658;BME280;5377;43.276;26.930;2023-03-14T01:42:32;99410.59;;;1.38;97.49
10658;BME280;5377;43.276;26.930;2023-03-14T01:45:00;99408.41;;;1.43;98.35
10658;BME280;5377;43.276;26.930;2023-03-14T01:47:27;99411.00;;;1.33;98.75
10658;BME280;5377;43.276;26.930;2023-03-14T01:49:57;99406.00;;;1.30;99.28
10658;BME280;5377;43.276;26.930;2023-03-14T01:52:28;99406.97;;;1.29;99.69
10658;BME280;5377;43.276;26.930;2023-03-14T01:55:02;99404.19;;;1.31;100.00
10658;BME280;5377;43.276;26.930;2023-03-14T01:57:33;99414.06;;;1.29;100.00
10658;BME280;5377;43.276;26.930;2023-03-14T02:00:05;99412.38;;;1.28;99.48
10658;BME280;5377;43.276;26.930;2023-03-14T02:02:37;99423.22;;;1.24;99.74
10658;BME280;5377;43.276;26.930;2023-03-14T02:05:06;99408.91;;;1.17;100.00
10658;BME280;5377;43.276;26.930;2023-03-14T02:07:35;99409.47;;;1.11;100.00
10658;BME280;5377;43.276;26.930;2023-03-14T02:10:06;99422.78;;;1.10;100.00
10658;BME280;5377;43.276;26.930;2023-03-14T02:12:33;99414.25;;;0.97;100.00
10658;BME280;5377;43.276;26.930;2023-03-14T02:15:01;99418.47;;;1.09;100.00
10658;BME280;5377;43.276;26.930;2023-03-14T02:17:28;99405.97;;;1.11;100.00
10658;BME280;5377;43.276;26.930;2023-03-14T02:20:06;99406.41;;;1.06;100.00
10658;BME280;5377;43.276;26.930;2023-03-14T02:22:37;99416.25;;;1.04;100.00
10658;BME280;5377;43.276;26.930;2023-03-14T02:25:10;99416.25;;;1.04;100.00
10658;BME280;5377;43.276;26.930;2023-03-14T02:27:40;99413.44;;;0.96;100.00
10658;BME280;5377;43.276;26.930;2023-03-14T02:30:10;99419.94;;;0.92;100.00
10658;BME280;5377;43.276;26.930;2023-03-14T02:32:39;99420.22;;;0.89;100.00
10658;BME280;5377;43.276;26.930;2023-03-14T02:35:10;99414.38;;;0.85;100.00
10658;BME280;5377;43.276;26.930;2023-03-14T02:37:41;99412.31;;;0.89;100.00
10658;BME280;5377;43.276;26.930;2023-03-14T02:40:10;99405.81;;;1.03;100.00
10658;BME280;5377;43.276;26.930;2023-03-14T02:42:38;99386.38;;;1.04;100.00
10658;BME280;5377;43.276;26.930;2023-03-14T02:48:16;99386.69;;;1.20;100.00
10658;BME280;5377;43.276;26.930;2023-03-14T02:50:45;99386.97;;;1.07;100.00
10658;BME280;5377;43.276;26.930;2023-03-14T02:53:15;99386.38;;;1.04;100.00
10658;BME280;5377;43.276;26.930;2023-03-14T02:55:45;99382.75;;;0.95;100.00
10658;BME280;5377;43.276;26.930;2023-03-14T02:58:12;99388.56;;;0.89;100.00
10658;BME280;5377;43.276;26.930;2023-03-14T03:00:39;99378.28;;;0.86;100.00
10658;BME280;5377;43.276;26.930;2023-03-14T03:03:06;99377.06;;;0.90;100.00
10658;BME280;5377;43.276;26.930;2023-03-14T03:05:34;99379.41;;;0.93;100.00
10658;BME280;5377;43.276;26.930;2023-03-14T03:08:02;99381.06;;;0.84;100.00
10658;BME280;5377;43.276;26.930;2023-03-14T03:10:29;99397.84;;;0.83;100.00
10658;BME280;5377;43.276;26.930;2023-03-14T03:12:56;99393.41;;;0.84;100.00
10658;BME280;5377;43.276;26.930;2023-03-14T03:15:23;99383.03;;;0.92;100.00
10658;BME280;5377;43.276;26.930;2023-03-14T03:17:50;99375.81;;;0.94;100.00
10658;BME280;5377;43.276;26.930;2023-03-14T03:20:17;99372.47;;;0.92;100.00
10658;BME280;5377;43.276;26.930;2023-03-14T03:22:45;99370.66;;;0.92;100.00
10658;BME280;5377;43.276;26.930;2023-03-14T03:25:12;99357.47;;;0.73;100.00
10658;BME280;5377;43.276;26.930;2023-03-14T03:27:39;99362.59;;;0.75;100.00
10658;BME280;5377;43.276;26.930;2023-03-14T03:30:06;99359.81;;;0.76;100.00
10658;BME280;5377;43.276;26.930;2023-03-14T03:32:33;99363.94;;;0.69;100.00
10658;BME280;5377;43.276;26.930;2023-03-14T03:35:02;99373.66;;;0.69;100.00
10658;BME280;5377;43.276;26.930;2023-03-14T03:37:30;99366.25;;;0.53;100.00
10658;BME280;5377;43.276;26.930;2023-03-14T03:39:58;99376.94;;;0.51;100.00
10658;BME280;5377;43.276;26.930;2023-03-14T03:42:26;99356.81;;;0.50;100.00
10658;BME280;5377;43.276;26.930;2023-03-14T03:44:53;99373.22;;;0.63;100.00
10658;BME280;5377;43.276;26.930;2023-03-14T03:47:19;99378.19;;;0.57;100.00
10658;BME280;5377;43.276;26.930;2023-03-14T03:49:46;99372.78;;;0.58;100.00
10658;BME280;5377;43.276;26.930;2023-03-14T03:52:13;99372.78;;;0.58;100.00
10658;BME280;5377;43.276;26.930;2023-03-14T03:54:40;99361.81;;;0.53;100.00
10658;BME280;5377;43.276;26.930;2023-03-14T03:57:08;99370.44;;;0.55;100.00
10658;BME280;5377;43.276;26.930;2023-03-14T03:59:35;99372.91;;;0.57;100.00
10658;BME280;5377;43.276;26.930;2023-03-14T04:02:04;99377.63;;;0.53;100.00
10658;BME280;5377;43.276;26.930;2023-03-14T04:04:30;99386.78;;;0.49;100.00
10658;BME280;5377;43.276;26.930;2023-03-14T04:06:57;99391.34;;;0.47;100.00
10658;BME280;5377;43.276;26.930;2023-03-14T04:09:24;99386.59;;;0.41;100.00
10658;BME280;5377;43.276;26.930;2023-03-14T04:11:51;99391.19;;;0.39;100.00
10658;BME280;5377;43.276;26.930;2023-03-14T04:14:19;99386.19;;;0.46;100.00
10658;BME280;5377;43.276;26.930;2023-03-14T04:16:45;99381.94;;;0.54;100.00
10658;BME280;5377;43.276;26.930;2023-03-14T04:19:12;99386.66;;;0.60;100.00
10658;BME280;5377;43.276;26.930;2023-03-14T04:21:39;99375.84;;;0.63;100.00
10658;BME280;5377;43.276;26.930;2023-03-14T04:24:10;99393.03;;;0.58;100.00
10658;BME280;5377;43.276;26.930;2023-03-14T04:26:36;99389.84;;;0.54;100.00
10658;BME280;5377;43.276;26.930;2023-03-14T04:29:03;99371.63;;;0.42;100.00
10658;BME280;5377;43.276;26.930;2023-03-14T04:31:31;99381.78;;;0.46;100.00
10658;BME280;5377;43.276;26.930;2023-03-14T04:33:58;99380.38;;;0.42;100.00
10658;BME280;5377;43.276;26.930;2023-03-14T04:36:25;99363.47;;;0.45;100.00
10658;BME280;5377;43.276;26.930;2023-03-14T04:38:52;99372.91;;;0.47;100.00
10658;BME280;5377;43.276;26.930;2023-03-14T04:41:18;99377.47;;;0.45;100.00
10658;BME280;5377;43.276;26.930;2023-03-14T04:43:45;99379.13;;;0.46;100.00
10658;BME280;5377;43.276;26.930;2023-03-14T04:46:12;99379.84;;;0.48;100.00
10658;BME280;5377;43.276;26.930;2023-03-14T04:48:40;99379.69;;;0.50;100.00
10658;BME280;5377;43.276;26.930;2023-03-14T04:51:07;99377.06;;;0.50;100.00
10658;BME280;5377;43.276;26.930;2023-03-14T04:53:34;99375.00;;;0.53;100.00
10658;BME280;5377;43.276;26.930;2023-03-14T04:56:02;99374.88;;;0.55;100.00
10658;BME280;5377;43.276;26.930;2023-03-14T04:58:29;99382.91;;;0.53;100.00
10658;BME280;5377;43.276;26.930;2023-03-14T05:01:01;99385.69;;;0.61;100.00
10658;BME280;5377;43.276;26.930;2023-03-14T05:03:29;99381.31;;;0.72;100.00
10658;BME280;5377;43.276;26.930;2023-03-14T05:05:57;99375.22;;;0.71;100.00
10658;BME280;5377;43.276;26.930;2023-03-14T05:08:24;99373.84;;;0.77;100.00
10658;BME280;5377;43.276;26.930;2023-03-14T05:10:54;99374.81;;;0.85;100.00
10658;BME280;5377;43.276;26.930;2023-03-14T05:13:21;99370.13;;;0.99;100.00
10658;BME280;5377;43.276;26.930;2023-03-14T05:15:48;99368.88;;;1.03;100.00
10658;BME280;5377;43.276;26.930;2023-03-14T05:18:16;99362.63;;;1.04;100.00
10658;BME280;5377;43.276;26.930;2023-03-14T05:20:43;99359.34;;;1.31;100.00
10658;BME280;5377;43.276;26.930;2023-03-14T05:23:11;99349.50;;;1.42;100.00
10658;BME280;5377;43.276;26.930;2023-03-14T05:25:38;99346.44;;;1.47;100.00
10658;BME280;5377;43.276;26.930;2023-03-14T05:28:05;99347.41;;;1.55;100.00
10658;BME280;5377;43.276;26.930;2023-03-14T05:30:31;99348.66;;;1.61;100.00
10658;BME280;5377;43.276;26.930;2023-03-14T05:32:59;99341.41;;;1.63;100.00
10658;BME280;5377;43.276;26.930;2023-03-14T05:35:25;99323.19;;;1.70;100.00
10658;BME280;5377;43.276;26.930;2023-03-14T05:37:52;99338.88;;;1.91;100.00
10658;BME280;5377;43.276;26.930;2023-03-14T05:40:20;99339.38;;;2.04;100.00
10658;BME280;5377;43.276;26.930;2023-03-14T05:42:47;99328.28;;;2.10;100.00
10658;BME280;5377;43.276;26.930;2023-03-14T05:45:14;99341.13;;;2.32;100.00
10658;BME280;5377;43.276;26.930;2023-03-14T05:47:40;99339.25;;;2.42;100.00
10658;BME280;5377;43.276;26.930;2023-03-14T05:50:08;99327.63;;;2.63;100.00
10658;BME280;5377;43.276;26.930;2023-03-14T05:52:35;99329.44;;;2.62;100.00
10658;BME280;5377;43.276;26.930;2023-03-14T05:55:03;99325.22;;;2.69;100.00
10658;BME280;5377;43.276;26.930;2023-03-14T05:57:31;99327.09;;;2.87;100.00
10658;BME280;5377;43.276;26.930;2023-03-14T05:59:58;99330.88;;;3.02;100.00
10658;BME280;5377;43.276;26.930;2023-03-14T06:02:25;99298.44;;;3.00;100.00
10658;BME280;5377;43.276;26.930;2023-03-14T06:04:51;99325.13;;;3.42;100.00
10658;BME280;5377;43.276;26.930;2023-03-14T06:07:18;99318.25;;;3.49;100.00
10658;BME280;5377;43.276;26.930;2023-03-14T06:09:45;99292.69;;;3.40;99.89
10658;BME280;5377;43.276;26.930;2023-03-14T06:12:12;99313.59;;;3.69;98.85
10658;BME280;5377;43.276;26.930;2023-03-14T06:14:40;99311.84;;;3.78;97.74
10658;BME280;5377;43.276;26.930;2023-03-14T06:17:07;99311.97;;;3.94;95.44
10658;BME280;5377;43.276;26.930;2023-03-14T06:19:33;99302.41;;;4.01;93.75
10658;BME280;5377;43.276;26.930;2023-03-14T06:22:00;99299.13;;;4.07;91.92
10658;BME280;5377;43.276;26.930;2023-03-14T06:24:27;99300.25;;;4.30;90.53
10658;BME280;5377;43.276;26.930;2023-03-14T06:26:54;99298.59;;;4.29;88.66
10658;BME280;5377;43.276;26.930;2023-03-14T06:29:20;99289.50;;;4.40;88.17
10658;BME280;5377;43.276;26.930;2023-03-14T06:31:48;99298.28;;;4.41;86.70
10658;BME280;5377;43.276;26.930;2023-03-14T06:34:15;99301.38;;;4.62;86.09
10658;BME280;5377;43.276;26.930;2023-03-14T06:36:42;99294.09;;;4.64;85.04
10658;BME280;5377;43.276;26.930;2023-03-14T06:39:09;99292.13;;;4.74;85.50
10658;BME280;5377;43.276;26.930;2023-03-14T06:41:35;99300.44;;;4.79;85.28
10658;BME280;5377;43.276;26.930;2023-03-14T06:44:02;99286.16;;;4.72;84.25
10658;BME280;5377;43.276;26.930;2023-03-14T06:46:29;99291.13;;;4.75;84.19
10658;BME280;5377;43.276;26.930;2023-03-14T06:48:57;99282.91;;;5.03;83.98
10658;BME280;5377;43.276;26.930;2023-03-14T06:51:24;99290.22;;;5.17;83.66
10658;BME280;5377;43.276;26.930;2023-03-14T06:53:51;99287.59;;;5.41;82.71
10658;BME280;5377;43.276;26.930;2023-03-14T06:56:18;99289.41;;;5.49;81.60
10658;BME280;5377;43.276;26.930;2023-03-14T06:58:44;99292.91;;;5.49;79.93
10658;BME280;5377;43.276;26.930;2023-03-14T07:01:19;99287.88;;;5.87;78.96
10658;BME280;5377;43.276;26.930;2023-03-14T07:03:46;99280.91;;;6.10;77.30
10658;BME280;5377;43.276;26.930;2023-03-14T07:06:14;99280.22;;;6.16;76.75
10658;BME280;5377;43.276;26.930;2023-03-14T07:08:41;99274.19;;;6.22;76.06
10658;BME280;5377;43.276;26.930;2023-03-14T07:11:08;99269.53;;;6.33;75.15
10658;BME280;5377;43.276;26.930;2023-03-14T07:13:36;99275.66;;;6.41;73.10
10658;BME280;5377;43.276;26.930;2023-03-14T07:16:03;99268.22;;;6.29;71.92
10658;BME280;5377;43.276;26.930;2023-03-14T07:18:30;99264.19;;;6.41;69.09
10658;BME280;5377;43.276;26.930;2023-03-14T07:20:57;99260.44;;;6.58;66.42
10658;BME280;5377;43.276;26.930;2023-03-14T07:23:25;99249.06;;;6.72;66.75
10658;BME280;5377;43.276;26.930;2023-03-14T07:25:52;99248.16;;;7.11;65.68
10658;BME280;5377;43.276;26.930;2023-03-14T07:28:19;99237.25;;;7.58;63.86
10658;BME280;5377;43.276;26.930;2023-03-14T07:30:46;99242.09;;;7.92;60.02
10658;BME280;5377;43.276;26.930;2023-03-14T07:33:13;99237.22;;;8.10;58.65
10658;BME280;5377;43.276;26.930;2023-03-14T07:35:40;99236.59;;;8.89;57.43
10658;BME280;5377;43.276;26.930;2023-03-14T07:38:06;99225.97;;;9.38;55.23
10658;BME280;5377;43.276;26.930;2023-03-14T07:40:34;99229.03;;;9.63;54.12
10658;BME280;5377;43.276;26.930;2023-03-14T07:43:01;99212.28;;;10.10;51.44
10658;BME280;5377;43.276;26.930;2023-03-14T07:45:28;99214.78;;;10.46;48.81
10658;BME280;5377;43.276;26.930;2023-03-14T07:47:55;99210.78;;;10.83;47.97
10658;BME280;5377;43.276;26.930;2023-03-14T07:50:22;99197.22;;;11.38;46.48
10658;BME280;5377;43.276;26.930;2023-03-14T07:52:49;99194.75;;;11.69;44.01
10658;BME280;5377;43.276;26.930;2023-03-14T07:55:16;99187.28;;;11.98;43.26
10658;BME280;5377;43.276;26.930;2023-03-14T07:57:44;99185.25;;;11.93;42.35
10658;BME280;5377;43.276;26.930;2023-03-14T08:00:12;99177.78;;;12.02;40.87
10658;BME280;5377;43.276;26.930;2023-03-14T08:02:39;99176.25;;;12.32;39.92
10658;BME280;5377;43.276;26.930;2023-03-14T08:05:07;99172.28;;;12.41;38.75
10658;BME280;5377;43.276;26.930;2023-03-14T08:07:33;99168.84;;;12.66;39.39
10658;BME280;5377;43.276;26.930;2023-03-14T08:10:00;99163.56;;;13.22;38.87
10658;BME280;5377;43.276;26.930;2023-03-14T08:12:27;99163.31;;;13.73;35.17
10658;BME280;5377;43.276;26.930;2023-03-14T08:14:55;99147.44;;;13.65;34.20
10658;BME280;5377;43.276;26.930;2023-03-14T08:17:22;99152.25;;;13.82;32.15
10658;BME280;5377;43.276;26.930;2023-03-14T08:19:49;99151.75;;;13.48;32.17
10658;BME280;5377;43.276;26.930;2023-03-14T08:22:15;99151.81;;;13.41;31.69
10658;BME280;5377;43.276;26.930;2023-03-14T08:24:42;99146.66;;;14.01;31.84
10658;BME280;5377;43.276;26.930;2023-03-14T08:27:09;99146.84;;;13.82;30.18
10658;BME280;5377;43.276;26.930;2023-03-14T08:29:36;99142.53;;;13.81;29.99
10658;BME280;5377;43.276;26.930;2023-03-14T08:32:04;99146.09;;;13.74;29.78
10658;BME280;5377;43.276;26.930;2023-03-14T08:34:32;99139.22;;;14.15;28.37
10658;BME280;5377;43.276;26.930;2023-03-14T08:36:59;99153.97;;;14.79;27.65
10658;BME280;5377;43.276;26.930;2023-03-14T08:39:26;99140.69;;;14.96;27.19
10658;BME280;5377;43.276;26.930;2023-03-14T08:41:52;99136.72;;;14.69;27.63
10658;BME280;5377;43.276;26.930;2023-03-14T08:44:19;99136.88;;;14.85;28.70
10658;BME280;5377;43.276;26.930;2023-03-14T08:46:46;99136.06;;;15.50;27.68
10658;BME280;5377;43.276;26.930;2023-03-14T08:49:14;99126.34;;;15.60;26.52
10658;BME280;5377;43.276;26.930;2023-03-14T08:51:41;99116.59;;;15.71;26.57
10658;BME280;5377;43.276;26.930;2023-03-14T08:54:10;99118.00;;;14.55;26.74
10658;BME280;5377;43.276;26.930;2023-03-14T08:56:37;99102.47;;;15.22;26.29
10658;BME280;5377;43.276;26.930;2023-03-14T08:59:04;99106.16;;;15.75;25.85
10658;BME280;5377;43.276;26.930;2023-03-14T09:01:31;99090.59;;;16.05;25.80
10658;BME280;5377;43.276;26.930;2023-03-14T09:03:58;99055.78;;;15.22;26.90
10658;BME280;5377;43.276;26.930;2023-03-14T09:06:26;99087.94;;;15.82;26.96
10658;BME280;5377;43.276;26.930;2023-03-14T09:08:53;99090.94;;;16.09;27.00
10658;BME280;5377;43.276;26.930;2023-03-14T09:11:19;99087.22;;;15.51;26.22
10658;BME280;5377;43.276;26.930;2023-03-14T09:13:46;99093.19;;;15.88;25.31
10658;BME280;5377;43.276;26.930;2023-03-14T09:16:14;99103.53;;;15.91;25.20
10658;BME280;5377;43.276;26.930;2023-03-14T09:18:41;99097.22;;;15.74;25.14
10658;BME280;5377;43.276;26.930;2023-03-14T09:21:08;99087.97;;;16.50;25.42
10658;BME280;5377;43.276;26.930;2023-03-14T09:23:36;99075.84;;;16.53;24.83
10658;BME280;5377;43.276;26.930;2023-03-14T09:26:03;99071.97;;;16.49;25.38
10658;BME280;5377;43.276;26.930;2023-03-14T09:28:30;99077.91;;;17.08;23.93
10658;BME280;5377;43.276;26.930;2023-03-14T09:30:56;99049.59;;;16.99;24.29
10658;BME280;5377;43.276;26.930;2023-03-14T09:33:23;99054.19;;;16.98;23.56
10658;BME280;5377;43.276;26.930;2023-03-14T09:35:50;99045.97;;;17.43;24.21
10658;BME280;5377;43.276;26.930;2023-03-14T09:38:17;99041.63;;;17.81;22.93
10658;BME280;5377;43.276;26.930;2023-03-14T09:40:47;99047.94;;;18.08;23.67
10658;BME280;5377;43.276;26.930;2023-03-14T09:43:15;99037.22;;;17.58;23.49
10658;BME280;5377;43.276;26.930;2023-03-14T09:45:43;99023.22;;;18.32;22.49
10658;BME280;5377;43.276;26.930;2023-03-14T09:48:15;99022.28;;;18.43;22.35
10658;BME280;5377;43.276;26.930;2023-03-14T09:50:44;99020.00;;;18.89;21.76
10658;BME280;5377;43.276;26.930;2023-03-14T09:53:14;99018.84;;;19.17;20.11
10658;BME280;5377;43.276;26.930;2023-03-14T09:55:43;98999.63;;;18.86;20.41
10658;BME280;5377;43.276;26.930;2023-03-14T09:58:16;99003.91;;;18.01;20.58
10658;BME280;5377;43.276;26.930;2023-03-14T10:00:42;99000.00;;;18.14;20.81
10658;BME280;5377;43.276;26.930;2023-03-14T10:03:22;99005.34;;;18.04;20.86
10658;BME280;5377;43.276;26.930;2023-03-14T10:05:49;98993.66;;;18.57;20.36
10658;BME280;5377;43.276;26.930;2023-03-14T10:08:16;98999.50;;;18.17;19.81
10658;BME280;5377;43.276;26.930;2023-03-14T10:10:42;98947.81;;;18.02;20.97
10658;BME280;5377;43.276;26.930;2023-03-14T10:13:15;98978.47;;;18.88;21.01
10658;BME280;5377;43.276;26.930;2023-03-14T10:15:47;98975.56;;;19.00;20.29
10658;BME280;5377;43.276;26.930;2023-03-14T10:18:14;98967.03;;;18.54;20.76
10658;BME280;5377;43.276;26.930;2023-03-14T10:20:43;98969.94;;;19.12;20.59
10658;BME280;5377;43.276;26.930;2023-03-14T10:23:23;98965.34;;;19.12;20.36
10658;BME280;5377;43.276;26.930;2023-03-14T10:26:00;98980.53;;;19.13;20.95
10658;BME280;5377;43.276;26.930;2023-03-14T10:28:31;98946.59;;;19.11;20.95
10658;BME280;5377;43.276;26.930;2023-03-14T10:30:59;98938.25;;;19.22;20.70
10658;BME280;5377;43.276;26.930;2023-03-14T10:33:28;98947.34;;;18.64;21.21
10658;BME280;5377;43.276;26.930;2023-03-14T10:35:56;98946.97;;;19.29;20.88
10658;BME280;5377;43.276;26.930;2023-03-14T10:38:25;98936.41;;;18.91;21.08
10658;BME280;5377;43.276;26.930;2023-03-14T10:40:53;98930.81;;;18.06;21.44
10658;BME280;5377;43.276;26.930;2023-03-14T10:43:24;98935.59;;;18.58;21.54
10658;BME280;5377;43.276;26.930;2023-03-14T10:45:55;98930.47;;;18.94;20.82
10658;BME280;5377;43.276;26.930;2023-03-14T10:48:29;98927.69;;;19.31;20.60
10658;BME280;5377;43.276;26.930;2023-03-14T10:50:58;98916.19;;;19.71;20.49
10658;BME280;5377;43.276;26.930;2023-03-14T10:53:34;98907.38;;;19.44;20.34
10658;BME280;5377;43.276;26.930;2023-03-14T10:56:05;98915.41;;;18.39;20.62
10658;BME280;5377;43.276;26.930;2023-03-14T10:58:35;98897.53;;;18.11;21.10
10658;BME280;5377;43.276;26.930;2023-03-14T11:01:14;98911.16;;;18.21;20.92
10658;BME280;5377;43.276;26.930;2023-03-14T11:03:51;98884.09;;;19.06;20.04
10658;BME280;5377;43.276;26.930;2023-03-14T11:06:23;98884.81;;;18.86;19.49
10658;BME280;5377;43.276;26.930;2023-03-14T11:08:57;98869.75;;;18.31;19.42
10658;BME280;5377;43.276;26.930;2023-03-14T11:11:31;98873.88;;;18.38;19.14
10658;BME280;5377;43.276;26.930;2023-03-14T11:14:05;98862.88;;;18.55;19.38
10658;BME280;5377;43.276;26.930;2023-03-14T11:16:44;98855.19;;;18.74;19.85
10658;BME280;5377;43.276;26.930;2023-03-14T11:19:40;98867.06;;;18.68;19.74
10658;BME280;5377;43.276;26.930;2023-03-14T11:22:19;98847.38;;;18.83;19.54
10658;BME280;5377;43.276;26.930;2023-03-14T11:24:56;98834.72;;;18.24;19.90
10658;BME280;5377;43.276;26.930;2023-03-14T11:27:36;98822.75;;;19.05;19.17
10658;BME280;5377;43.276;26.930;2023-03-14T11:30:15;98819.38;;;18.77;19.28
10658;BME280;5377;43.276;26.930;2023-03-14T11:32:46;98809.00;;;19.26;18.84
10658;BME280;5377;43.276;26.930;2023-03-14T11:35:22;98800.72;;;20.24;19.05
10658;BME280;5377;43.276;26.930;2023-03-14T11:37:53;98799.63;;;20.05;17.60
10658;BME280;5377;43.276;26.930;2023-03-14T11:40:22;98793.34;;;19.54;18.46
10658;BME280;5377;43.276;26.930;2023-03-14T11:43:04;98747.72;;;19.97;18.47
10658;BME280;5377;43.276;26.930;2023-03-14T11:45:35;98778.16;;;20.04;17.45
10658;BME280;5377;43.276;26.930;2023-03-14T11:48:19;98768.34;;;19.62;18.06
10658;BME280;5377;43.276;26.930;2023-03-14T11:50:50;98750.97;;;19.68;18.16
10658;BME280;5377;43.276;26.930;2023-03-14T11:53:22;98764.84;;;20.12;18.09
10658;BME280;5377;43.276;26.930;2023-03-14T11:55:52;98763.19;;;19.76;18.60
10658;BME280;5377;43.276;26.930;2023-03-14T11:58:22;98750.31;;;19.10;19.13
10658;BME280;5377;43.276;26.930;2023-03-14T12:00:51;98759.59;;;19.40;18.82
10658;BME280;5377;43.276;26.930;2023-03-14T12:03:26;98738.75;;;19.66;18.85
10658;BME280;5377;43.276;26.930;2023-03-14T12:06:04;98734.34;;;20.31;18.49
10658;BME280;5377;43.276;26.930;2023-03-14T12:08:39;98744.19;;;19.81;19.07
10658;BME280;5377;43.276;26.930;2023-03-14T12:11:12;98723.44;;;20.41;18.78
10658;BME280;5377;43.276;26.930;2023-03-14T12:13:40;98718.03;;;21.00;18.47
10658;BME280;5377;43.276;26.930;2023-03-14T12:16:23;98718.06;;;21.78;18.64
10658;BME280;5377;43.276;26.930;2023-03-14T12:18:53;98709.94;;;21.73;18.08
10658;BME280;5377;43.276;26.930;2023-03-14T12:21:41;98703.34;;;21.79;17.09
10658;BME280;5377;43.276;26.930;2023-03-14T12:24:17;98704.59;;;21.19;17.54
10658;BME280;5377;43.276;26.930;2023-03-14T12:26:49;98703.94;;;20.93;17.89
10658;BME280;5377;43.276;26.930;2023-03-14T12:29:16;98688.06;;;20.51;17.64
10658;BME280;5377;43.276;26.930;2023-03-14T12:31:45;98699.50;;;20.53;17.36
10658;BME280;5377;43.276;26.930;2023-03-14T12:34:33;98646.78;;;20.29;17.65
10658;BME280;5377;43.276;26.930;2023-03-14T12:37:05;98681.00;;;20.45;17.38
10658;BME280;5377;43.276;26.930;2023-03-14T12:39:46;98685.47;;;19.90;17.81
10658;BME280;5377;43.276;26.930;2023-03-14T12:42:19;98683.03;;;19.93;17.74
10658;BME280;5377;43.276;26.930;2023-03-14T12:44:48;98666.19;;;19.71;17.72
10658;BME280;5377;43.276;26.930;2023-03-14T12:50:31;98656.94;;;20.72;16.74
10658;BME280;5377;43.276;26.930;2023-03-14T12:53:13;98660.94;;;20.20;17.12
10658;BME280;5377;43.276;26.930;2023-03-14T12:55:47;98649.75;;;20.92;17.17
10658;BME280;5377;43.276;26.930;2023-03-14T12:58:21;98649.75;;;20.27;16.73
10658;BME280;5377;43.276;26.930;2023-03-14T13:00:54;98654.44;;;20.06;17.09
10658;BME280;5377;43.276;26.930;2023-03-14T13:03:24;98652.44;;;20.97;16.87
10658;BME280;5377;43.276;26.930;2023-03-14T13:05:56;98648.00;;;20.67;15.62
10658;BME280;5377;43.276;26.930;2023-03-14T13:08:37;98639.78;;;21.16;15.78
10658;BME280;5377;43.276;26.930;2023-03-14T13:11:08;98634.50;;;20.41;15.95
10658;BME280;5377;43.276;26.930;2023-03-14T13:13:37;98630.69;;;20.32;16.54
10658;BME280;5377;43.276;26.930;2023-03-14T13:16:12;98644.84;;;20.29;17.02
10658;BME280;5377;43.276;26.930;2023-03-14T13:18:41;98632.63;;;20.27;16.29